createdAt,value
2023-12-16T00:00:42.708Z,7.70
2023-12-16T00:01:45.182Z,7.20
2023-12-16T00:02:42.998Z,8.00
2023-12-16T00:03:43.250Z,7.90
2023-12-16T00:04:43.377Z,8.40
2023-12-16T00:05:43.614Z,8.30
2023-12-16T00:06:43.771Z,9.00
2023-12-16T00:07:43.934Z,8.20
2023-12-16T00:08:44.100Z,8.70
2023-12-16T00:09:44.375Z,9.00
2023-12-16T00:10:44.516Z,8.70
2023-12-16T00:11:44.677Z,9.10
2023-12-16T00:12:44.892Z,9.90
2023-12-16T00:13:45.038Z,9.20
2023-12-16T00:14:45.245Z,9.00
2023-12-16T00:15:45.492Z,9.20
2023-12-16T00:16:45.629Z,9.30
2023-12-16T00:17:45.896Z,8.90
2023-12-16T00:18:46.186Z,9.70
2023-12-16T00:19:46.262Z,10.70
2023-12-16T00:20:46.473Z,10.30
2023-12-16T00:21:46.632Z,9.30
2023-12-16T00:22:46.885Z,9.80
2023-12-16T00:23:46.975Z,9.60
2023-12-16T00:24:47.160Z,9.40
2023-12-16T00:25:47.836Z,10.20
2023-12-16T00:26:47.521Z,9.20
2023-12-16T00:27:47.763Z,9.70
2023-12-16T00:28:47.901Z,9.90
2023-12-16T00:29:48.101Z,9.90
2023-12-16T00:30:48.406Z,9.80
2023-12-16T00:31:48.543Z,9.60
2023-12-16T00:32:48.712Z,9.70
2023-12-16T00:33:48.903Z,10.10
2023-12-16T00:34:49.044Z,9.70
2023-12-16T00:35:49.249Z,9.90
2023-12-16T00:36:49.491Z,9.70
2023-12-16T00:37:49.780Z,10.30
2023-12-16T00:38:49.809Z,9.90
2023-12-16T00:39:50.016Z,9.80
2023-12-16T00:40:50.212Z,9.30
2023-12-16T00:41:50.894Z,9.50
2023-12-16T00:42:50.586Z,9.50
2023-12-16T00:43:50.770Z,10.20
2023-12-16T00:44:50.950Z,10.10
2023-12-16T00:45:51.631Z,10.10
2023-12-16T00:46:51.328Z,9.80
2023-12-16T00:47:51.585Z,10.20
2023-12-16T00:48:51.750Z,9.70
2023-12-16T00:49:51.925Z,9.70
2023-12-16T00:50:52.061Z,10.10
2023-12-16T00:51:52.247Z,9.50
2023-12-16T00:52:52.477Z,9.80
2023-12-16T00:53:52.634Z,10.00
2023-12-16T00:54:53.850Z,10.40
2023-12-16T00:55:53.015Z,9.60
2023-12-16T00:56:53.185Z,10.30
2023-12-16T00:57:53.458Z,9.70
2023-12-16T00:58:53.580Z,9.10
2023-12-16T00:59:53.775Z,9.30
2023-12-16T01:00:54.039Z,9.40
2023-12-16T01:01:54.215Z,9.40
2023-12-16T01:02:54.349Z,9.90
2023-12-16T01:03:54.754Z,10.20
2023-12-16T01:04:54.835Z,9.70
2023-12-16T01:05:55.025Z,9.10
2023-12-16T01:06:55.207Z,9.10
2023-12-16T01:07:55.408Z,9.40
2023-12-16T01:08:55.553Z,9.40
2023-12-16T01:09:55.870Z,9.50
2023-12-16T01:10:55.950Z,9.40
2023-12-16T01:11:56.104Z,9.80
2023-12-16T01:12:56.357Z,9.40
2023-12-16T01:13:56.556Z,9.10
2023-12-16T01:14:57.796Z,9.50
2023-12-16T01:15:57.003Z,9.60
2023-12-16T01:16:57.144Z,9.10
2023-12-16T01:17:57.406Z,9.80
2023-12-16T01:18:57.668Z,9.40
2023-12-16T01:19:57.684Z,9.30
2023-12-16T01:20:57.922Z,8.80
2023-12-16T01:21:58.083Z,9.50
2023-12-16T01:22:58.290Z,10.20
2023-12-16T01:23:58.478Z,9.40
2023-12-16T01:24:58.693Z,10.10
2023-12-16T01:25:58.870Z,9.20
2023-12-16T01:26:58.956Z,9.10
2023-12-16T01:27:59.195Z,9.40
2023-12-16T01:29:00.385Z,9.20
2023-12-16T01:29:59.542Z,9.30
2023-12-16T01:30:59.859Z,9.70
2023-12-16T01:31:59.956Z,8.70
2023-12-16T01:33:00.234Z,9.20
2023-12-16T01:34:00.491Z,9.00
2023-12-16T01:35:00.508Z,9.50
2023-12-16T01:36:00.670Z,9.20
2023-12-16T01:37:00.942Z,9.50
2023-12-16T01:38:01.044Z,9.10
2023-12-16T01:39:01.223Z,9.70
2023-12-16T01:40:01.623Z,9.10
2023-12-16T01:41:01.679Z,9.20
2023-12-16T01:42:01.820Z,8.60
2023-12-16T01:43:02.049Z,8.60
2023-12-16T01:44:02.188Z,9.00
2023-12-16T01:45:02.384Z,8.50
2023-12-16T01:46:02.649Z,9.20
2023-12-16T01:47:02.827Z,8.90
2023-12-16T01:48:03.036Z,9.30
2023-12-16T01:49:03.253Z,9.20
2023-12-16T01:50:03.351Z,9.30
2023-12-16T01:51:04.473Z,10.10
2023-12-16T01:52:03.690Z,9.20
2023-12-16T01:53:03.920Z,8.70
2023-12-16T01:54:11.102Z,8.90
2023-12-16T01:55:04.293Z,9.50
2023-12-16T01:56:04.499Z,9.70
2023-12-16T01:57:04.662Z,8.80
2023-12-16T01:58:04.873Z,9.10
2023-12-16T01:59:05.053Z,9.80
2023-12-16T02:00:05.254Z,9.70
2023-12-16T02:01:05.594Z,10.00
2023-12-16T02:02:05.604Z,10.40
2023-12-16T02:03:05.774Z,9.50
2023-12-16T02:04:06.069Z,9.00
2023-12-16T02:05:06.149Z,8.90
2023-12-16T02:06:06.426Z,9.70
2023-12-16T02:07:06.682Z,9.00
2023-12-16T02:08:06.751Z,9.60
2023-12-16T02:09:06.958Z,9.60
2023-12-16T02:10:07.126Z,9.60
2023-12-16T02:11:07.314Z,9.90
2023-12-16T02:12:07.494Z,9.90
2023-12-16T02:13:07.790Z,10.40
2023-12-16T02:14:07.852Z,10.40
2023-12-16T02:15:08.073Z,10.20
2023-12-16T02:16:08.321Z,10.10
2023-12-16T02:17:08.458Z,10.60
2023-12-16T02:18:08.635Z,9.60
2023-12-16T02:19:08.854Z,9.90
2023-12-16T02:20:09.103Z,10.30
2023-12-16T02:21:09.174Z,10.60
2023-12-16T02:22:09.371Z,10.20
2023-12-16T02:23:09.519Z,9.90
2023-12-16T02:24:09.724Z,10.20
2023-12-16T02:25:09.925Z,10.60
2023-12-16T02:26:10.089Z,9.70
2023-12-16T02:27:10.264Z,10.70
2023-12-16T02:28:10.489Z,10.40
2023-12-16T02:29:10.623Z,11.00
2023-12-16T02:30:10.925Z,9.70
2023-12-16T02:31:11.151Z,10.20
2023-12-16T02:32:11.183Z,10.40
2023-12-16T02:33:11.442Z,11.10
2023-12-16T02:34:11.662Z,10.50
2023-12-16T02:35:11.754Z,10.50
2023-12-16T02:36:11.972Z,10.50
2023-12-16T02:37:12.135Z,11.20
2023-12-16T02:38:12.291Z,11.20
2023-12-16T02:39:12.485Z,11.30
2023-12-16T02:40:12.687Z,11.20
2023-12-16T02:41:12.862Z,11.10
2023-12-16T02:42:13.020Z,11.20
2023-12-16T02:43:13.286Z,10.80
2023-12-16T02:44:13.370Z,10.90
2023-12-16T02:45:13.547Z,11.40
2023-12-16T02:46:13.785Z,11.00
2023-12-16T02:47:13.960Z,10.70
2023-12-16T02:48:14.273Z,11.00
2023-12-16T02:49:14.409Z,11.50
2023-12-16T02:50:14.480Z,11.20
2023-12-16T02:51:14.672Z,10.70
2023-12-16T02:52:14.981Z,11.70
2023-12-16T02:53:15.013Z,11.40
2023-12-16T02:54:15.185Z,12.00
2023-12-16T02:55:15.427Z,11.40
2023-12-16T02:56:15.554Z,11.70
2023-12-16T02:57:15.749Z,12.00
2023-12-16T02:58:15.969Z,11.00
2023-12-16T02:59:16.108Z,11.50
2023-12-16T03:00:16.295Z,11.60
2023-12-16T03:01:16.595Z,11.30
2023-12-16T03:02:16.671Z,12.20
2023-12-16T03:03:16.907Z,12.10
2023-12-16T03:04:17.103Z,12.90
2023-12-16T03:05:17.244Z,11.40
2023-12-16T03:06:17.386Z,12.80
2023-12-16T03:07:17.622Z,12.30
2023-12-16T03:08:17.778Z,12.20
2023-12-16T03:09:17.966Z,11.90
2023-12-16T03:10:18.203Z,12.40
2023-12-16T03:11:18.325Z,12.70
2023-12-16T03:12:18.509Z,12.20
2023-12-16T03:13:18.727Z,12.70
2023-12-16T03:14:18.904Z,12.50
2023-12-16T03:15:19.095Z,12.40
2023-12-16T03:16:19.302Z,12.50
2023-12-16T03:17:19.431Z,12.00
2023-12-16T03:18:19.698Z,12.10
2023-12-16T03:19:19.921Z,12.00
2023-12-16T03:20:20.019Z,11.90
2023-12-16T03:21:20.225Z,12.00
2023-12-16T03:22:20.447Z,12.10
2023-12-16T03:23:20.579Z,12.90
2023-12-16T03:24:20.776Z,12.70
2023-12-16T03:25:20.938Z,11.90
2023-12-16T03:26:21.117Z,12.60
2023-12-16T03:27:21.283Z,12.20
2023-12-16T03:28:21.487Z,12.80
2023-12-16T03:29:21.763Z,12.50
2023-12-16T03:30:21.859Z,12.90
2023-12-16T03:31:22.019Z,12.30
2023-12-16T03:32:22.184Z,12.40
2023-12-16T03:33:22.484Z,12.10
2023-12-16T03:34:22.575Z,12.20
2023-12-16T03:35:22.718Z,12.70
2023-12-16T03:36:22.905Z,12.20
2023-12-16T03:37:23.107Z,11.60
2023-12-16T03:38:23.286Z,12.70
2023-12-16T03:39:23.456Z,12.30
2023-12-16T03:40:23.699Z,13.10
2023-12-16T03:41:23.863Z,12.60
2023-12-16T03:42:24.006Z,12.60
2023-12-16T03:43:24.236Z,13.10
2023-12-16T03:44:24.362Z,12.90
2023-12-16T03:45:24.555Z,12.80
2023-12-16T03:46:24.890Z,12.40
2023-12-16T03:47:24.934Z,13.20
2023-12-16T03:48:25.192Z,11.90
2023-12-16T03:49:25.372Z,12.60
2023-12-16T03:50:25.490Z,13.00
2023-12-16T03:51:25.668Z,12.10
2023-12-16T03:52:25.882Z,12.90
2023-12-16T03:53:26.050Z,13.20
2023-12-16T03:54:26.232Z,12.20
2023-12-16T03:55:26.439Z,11.90
2023-12-16T03:56:26.600Z,12.40
2023-12-16T03:57:26.775Z,12.80
2023-12-16T03:58:27.017Z,12.40
2023-12-16T03:59:27.136Z,12.60
2023-12-16T04:00:27.323Z,11.80
2023-12-16T04:01:27.576Z,12.40
2023-12-16T04:02:27.737Z,12.10
2023-12-16T04:03:27.905Z,11.60
2023-12-16T04:04:28.166Z,12.10
2023-12-16T04:05:28.293Z,12.20
2023-12-16T04:06:28.443Z,12.90
2023-12-16T04:07:28.665Z,12.30
2023-12-16T04:08:28.804Z,12.60
2023-12-16T04:09:29.027Z,12.30
2023-12-16T04:10:29.226Z,12.50
2023-12-16T04:11:29.342Z,12.50
2023-12-16T04:12:29.525Z,11.80
2023-12-16T04:13:29.741Z,12.00
2023-12-16T04:14:29.896Z,12.20
2023-12-16T04:15:30.075Z,11.60
2023-12-16T04:16:30.313Z,12.30
2023-12-16T04:17:30.497Z,12.10
2023-12-16T04:18:30.730Z,11.60
2023-12-16T04:19:30.872Z,12.10
2023-12-16T04:20:30.993Z,12.30
2023-12-16T04:21:31.165Z,12.00
2023-12-16T04:22:31.387Z,12.30
2023-12-16T04:23:31.543Z,11.60
2023-12-16T04:24:31.722Z,11.70
2023-12-16T04:25:31.997Z,12.10
2023-12-16T04:26:32.077Z,11.70
2023-12-16T04:27:32.266Z,12.10
2023-12-16T04:28:32.456Z,12.10
2023-12-16T04:29:32.634Z,11.80
2023-12-16T04:31:33.044Z,12.00
2023-12-16T04:32:33.207Z,12.80
2023-12-16T04:33:33.453Z,12.10
2023-12-16T04:34:33.664Z,11.20
2023-12-16T04:35:33.708Z,11.30
2023-12-16T04:36:33.924Z,11.80
2023-12-16T04:37:34.087Z,12.10
2023-12-16T04:38:34.266Z,12.10
2023-12-16T04:39:34.455Z,11.30
2023-12-16T04:40:34.753Z,12.60
2023-12-16T04:41:34.815Z,10.90
2023-12-16T04:42:35.009Z,11.40
2023-12-16T04:43:35.195Z,11.10
2023-12-16T04:44:35.371Z,11.40
2023-12-16T04:45:35.559Z,11.00
2023-12-16T04:46:35.756Z,11.60
2023-12-16T04:47:36.159Z,11.90
2023-12-16T04:48:36.317Z,11.90
2023-12-16T04:49:36.381Z,10.90
2023-12-16T04:50:36.523Z,10.60
2023-12-16T04:51:36.662Z,10.90
2023-12-16T04:52:36.838Z,11.20
2023-12-16T04:53:37.014Z,11.60
2023-12-16T04:54:37.205Z,11.10
2023-12-16T04:55:37.390Z,10.80
2023-12-16T04:56:37.571Z,10.70
2023-12-16T04:57:37.890Z,11.60
2023-12-16T04:58:37.966Z,10.80
2023-12-16T04:59:38.102Z,10.80
2023-12-16T05:00:38.282Z,11.30
2023-12-16T05:01:38.564Z,11.30
2023-12-16T05:02:38.658Z,11.00
2023-12-16T05:03:38.866Z,10.70
2023-12-16T05:04:39.058Z,10.90
2023-12-16T05:05:39.265Z,10.20
2023-12-16T05:06:39.404Z,10.60
2023-12-16T05:07:39.866Z,10.20
2023-12-16T05:08:39.778Z,10.80
2023-12-16T05:09:39.966Z,10.20
2023-12-16T05:10:40.123Z,11.00
2023-12-16T05:11:40.306Z,10.70
2023-12-16T05:12:40.493Z,10.40
2023-12-16T05:13:40.678Z,10.60
2023-12-16T05:14:40.846Z,9.90
2023-12-16T05:15:41.016Z,10.60
2023-12-16T05:16:41.201Z,10.90
2023-12-16T05:17:41.745Z,10.80
2023-12-16T05:18:41.631Z,10.40
2023-12-16T05:19:41.828Z,10.00
2023-12-16T05:20:41.917Z,11.00
2023-12-16T05:21:42.099Z,10.40
2023-12-16T05:22:42.283Z,9.50
2023-12-16T05:23:42.478Z,10.00
2023-12-16T05:24:42.690Z,10.00
2023-12-16T05:25:42.831Z,9.60
2023-12-16T05:26:43.017Z,10.10
2023-12-16T05:27:43.203Z,10.00
2023-12-16T05:28:43.380Z,10.10
2023-12-16T05:29:43.581Z,9.90
2023-12-16T05:30:43.823Z,9.90
2023-12-16T05:31:44.032Z,10.00
2023-12-16T05:32:44.156Z,9.90
2023-12-16T05:33:44.388Z,10.30
2023-12-16T05:34:44.496Z,9.80
2023-12-16T05:35:44.736Z,9.50
2023-12-16T05:36:44.863Z,10.30
2023-12-16T05:37:45.044Z,9.30
2023-12-16T05:38:45.281Z,9.80
2023-12-16T05:39:45.444Z,9.90
2023-12-16T05:40:45.614Z,9.30
2023-12-16T05:41:45.814Z,9.00
2023-12-16T05:42:46.077Z,10.20
2023-12-16T05:43:46.282Z,9.40
2023-12-16T05:44:46.369Z,9.30
2023-12-16T05:45:46.588Z,9.30
2023-12-16T05:46:46.761Z,8.80
2023-12-16T05:47:46.979Z,9.90
2023-12-16T05:48:47.212Z,9.90
2023-12-16T05:49:47.350Z,9.50
2023-12-16T05:50:47.485Z,9.40
2023-12-16T05:51:47.678Z,8.80
2023-12-16T05:52:47.828Z,8.60
2023-12-16T05:53:48.044Z,8.90
2023-12-16T05:54:48.256Z,9.10
2023-12-16T05:55:48.444Z,9.10
2023-12-16T05:56:48.596Z,8.60
2023-12-16T05:57:48.903Z,8.70
2023-12-16T05:58:48.992Z,9.20
2023-12-16T05:59:49.178Z,8.30
2023-12-16T06:00:49.503Z,8.60
2023-12-16T06:01:49.655Z,8.60
2023-12-16T06:02:49.800Z,8.40
2023-12-16T06:03:49.975Z,8.90
2023-12-16T06:04:50.142Z,8.60
2023-12-16T06:05:50.332Z,9.00
2023-12-16T06:06:50.531Z,8.60
2023-12-16T06:07:50.695Z,9.20
2023-12-16T06:08:50.873Z,8.60
2023-12-16T06:09:51.103Z,8.70
2023-12-16T06:10:51.270Z,8.20
2023-12-16T06:11:51.453Z,7.90
2023-12-16T06:12:51.690Z,8.50
2023-12-16T06:13:51.853Z,8.90
2023-12-16T06:14:52.007Z,8.50
2023-12-16T06:16:03.739Z,8.60
2023-12-16T06:16:53.502Z,8.10
2023-12-16T06:17:52.809Z,8.90
2023-12-16T06:18:53.025Z,8.20
2023-12-16T06:19:53.029Z,8.10
2023-12-16T06:20:53.197Z,8.40
2023-12-16T06:21:53.399Z,7.90
2023-12-16T06:22:53.604Z,8.50
2023-12-16T06:23:53.781Z,8.50
2023-12-16T06:24:54.012Z,8.10
2023-12-16T06:25:54.177Z,8.60
2023-12-16T06:26:54.360Z,8.70
2023-12-16T06:27:54.604Z,8.20
2023-12-16T06:28:54.720Z,7.70
2023-12-16T06:29:54.916Z,7.90
2023-12-16T06:30:55.205Z,8.30
2023-12-16T06:31:55.311Z,8.50
2023-12-16T06:32:55.643Z,8.30
2023-12-16T06:33:55.805Z,7.80
2023-12-16T06:34:55.916Z,7.60
2023-12-16T06:35:56.064Z,7.80
2023-12-16T06:36:56.269Z,8.50
2023-12-16T06:37:56.480Z,8.40
2023-12-16T06:38:56.646Z,8.30
2023-12-16T06:39:56.902Z,8.00
2023-12-16T06:40:57.035Z,7.80
2023-12-16T06:41:57.206Z,7.70
2023-12-16T06:42:57.493Z,7.80
2023-12-16T06:43:57.593Z,7.40
2023-12-16T06:44:57.804Z,7.50
2023-12-16T06:46:00.858Z,8.20
2023-12-16T06:46:58.165Z,8.10
2023-12-16T06:47:58.517Z,7.20
2023-12-16T06:48:58.639Z,7.50
2023-12-16T06:49:58.769Z,7.70
2023-12-16T06:50:58.944Z,7.60
2023-12-16T06:51:59.156Z,7.50
2023-12-16T06:52:59.349Z,7.20
2023-12-16T06:53:59.510Z,7.40
2023-12-16T06:54:59.741Z,7.00
2023-12-16T06:55:59.888Z,7.20
2023-12-16T06:57:00.060Z,6.80
2023-12-16T06:58:00.298Z,6.70
2023-12-16T06:59:00.461Z,7.40
2023-12-16T07:00:00.651Z,7.20
2023-12-16T07:01:00.924Z,6.50
2023-12-16T07:02:01.091Z,7.30
2023-12-16T07:03:01.195Z,7.30
2023-12-16T07:04:01.586Z,7.10
2023-12-16T07:05:02.993Z,7.00
2023-12-16T07:06:01.785Z,7.50
2023-12-16T07:07:02.019Z,7.20
2023-12-16T07:08:02.148Z,7.20
2023-12-16T07:09:02.331Z,7.10
2023-12-16T07:10:02.626Z,7.10
2023-12-16T07:11:02.724Z,6.60
2023-12-16T07:12:02.915Z,6.50
2023-12-16T07:13:03.228Z,6.70
2023-12-16T07:14:03.306Z,6.60
2023-12-16T07:15:03.495Z,6.60
2023-12-16T07:16:03.764Z,7.00
2023-12-16T07:17:03.878Z,6.60
2023-12-16T07:18:04.174Z,6.40
2023-12-16T07:19:04.370Z,6.70
2023-12-16T07:20:04.619Z,7.20
2023-12-16T07:21:04.656Z,6.90
2023-12-16T07:22:04.961Z,6.90
2023-12-16T07:23:05.076Z,6.60
2023-12-16T07:24:05.250Z,6.70
2023-12-16T07:25:05.542Z,6.40
2023-12-16T07:26:05.629Z,6.40
2023-12-16T07:27:05.833Z,6.10
2023-12-16T07:28:06.100Z,6.50
2023-12-16T07:29:06.213Z,6.30
2023-12-16T07:30:06.420Z,6.70
2023-12-16T07:31:06.746Z,6.30
2023-12-16T07:32:06.875Z,6.40
2023-12-16T07:33:07.093Z,5.90
2023-12-16T07:34:07.349Z,5.90
2023-12-16T07:35:07.606Z,6.20
2023-12-16T07:36:07.562Z,5.70
2023-12-16T07:37:07.811Z,5.60
2023-12-16T07:38:07.948Z,6.10
2023-12-16T07:39:08.124Z,6.10
2023-12-16T07:40:08.424Z,6.00
2023-12-16T07:41:08.506Z,5.70
2023-12-16T07:42:08.705Z,5.40
2023-12-16T07:43:08.875Z,6.10
2023-12-16T07:44:09.019Z,6.40
2023-12-16T07:45:09.235Z,6.50
2023-12-16T07:46:09.483Z,6.20
2023-12-16T07:47:09.656Z,6.60
2023-12-16T07:48:10.054Z,5.90
2023-12-16T07:49:10.168Z,6.00
2023-12-16T07:50:10.167Z,5.60
2023-12-16T07:51:10.396Z,6.10
2023-12-16T07:52:10.559Z,5.90
2023-12-16T07:53:10.716Z,5.80
2023-12-16T07:54:10.901Z,6.20
2023-12-16T07:55:11.158Z,6.00
2023-12-16T07:56:11.309Z,6.00
2023-12-16T07:57:11.471Z,6.00
2023-12-16T07:58:11.699Z,6.20
2023-12-16T07:59:11.877Z,5.70
2023-12-16T08:00:12.043Z,5.60
2023-12-16T08:01:12.313Z,6.10
2023-12-16T08:02:12.419Z,6.20
2023-12-16T08:03:12.710Z,5.70
2023-12-16T08:04:12.819Z,5.40
2023-12-16T08:05:12.984Z,5.60
2023-12-16T08:06:13.241Z,5.80
2023-12-16T08:07:13.346Z,5.80
2023-12-16T08:08:13.509Z,6.40
2023-12-16T08:09:13.676Z,5.80
2023-12-16T08:10:13.920Z,6.10
2023-12-16T08:11:14.062Z,5.80
2023-12-16T08:12:14.240Z,5.30
2023-12-16T08:13:14.484Z,5.70
2023-12-16T08:14:14.619Z,5.40
2023-12-16T08:15:14.818Z,5.30
2023-12-16T08:16:15.061Z,6.00
2023-12-16T08:17:15.195Z,2.30
2023-12-16T08:18:17.173Z,2.30
2023-12-16T08:19:15.630Z,2.40
2023-12-16T08:20:15.808Z,2.80
2023-12-16T08:21:15.932Z,2.70
2023-12-16T08:22:16.168Z,2.90
2023-12-16T08:23:16.291Z,3.40
2023-12-16T08:24:16.471Z,3.40
2023-12-16T08:25:16.698Z,3.40
2023-12-16T08:26:16.842Z,3.80
2023-12-16T08:27:17.014Z,3.70
2023-12-16T08:28:17.287Z,3.60
2023-12-16T08:29:17.408Z,3.60
2023-12-16T08:30:17.662Z,3.80
2023-12-16T08:31:17.820Z,3.90
2023-12-16T08:32:17.973Z,3.70
2023-12-16T08:33:18.165Z,4.00
2023-12-16T08:34:18.545Z,3.80
2023-12-16T08:35:18.748Z,4.20
2023-12-16T08:36:18.727Z,3.80
2023-12-16T08:37:19.019Z,3.90
2023-12-16T08:38:19.081Z,4.30
2023-12-16T08:39:19.279Z,3.80
2023-12-16T08:40:19.503Z,4.10
2023-12-16T08:41:19.660Z,4.20
2023-12-16T08:42:19.836Z,3.90
2023-12-16T08:43:20.027Z,3.60
2023-12-16T08:44:20.213Z,3.90
2023-12-16T08:45:20.426Z,3.80
2023-12-16T08:46:20.650Z,4.20
2023-12-16T08:47:20.797Z,3.60
2023-12-16T08:48:21.103Z,4.00
2023-12-16T08:49:21.241Z,3.60
2023-12-16T08:50:21.359Z,4.10
2023-12-16T08:51:21.565Z,4.10
2023-12-16T08:52:21.777Z,3.80
2023-12-16T08:53:21.913Z,3.80
2023-12-16T08:54:22.109Z,3.40
2023-12-16T08:55:22.327Z,3.70
2023-12-16T08:56:22.487Z,3.30
2023-12-16T08:57:22.636Z,3.50
2023-12-16T08:58:22.871Z,4.10
2023-12-16T08:59:23.149Z,3.40
2023-12-16T09:00:23.201Z,3.60
2023-12-16T09:01:23.585Z,3.70
2023-12-16T09:02:23.589Z,4.00
2023-12-16T09:03:23.847Z,3.80
2023-12-16T09:04:23.953Z,3.80
2023-12-16T09:05:24.169Z,3.40
2023-12-16T09:06:24.328Z,4.00
2023-12-16T09:07:24.532Z,3.50
2023-12-16T09:08:24.700Z,3.60
2023-12-16T09:09:24.880Z,3.40
2023-12-16T09:10:25.171Z,3.60
2023-12-16T09:11:25.289Z,3.80
2023-12-16T09:12:25.482Z,3.70
2023-12-16T09:13:25.706Z,3.90
2023-12-16T09:14:25.816Z,3.80
2023-12-16T09:15:25.993Z,3.90
2023-12-16T09:16:26.235Z,3.60
2023-12-16T09:17:26.436Z,3.70
2023-12-16T09:18:26.621Z,3.40
2023-12-16T09:19:26.959Z,3.50
2023-12-16T09:20:26.925Z,3.80
2023-12-16T09:21:27.108Z,3.30
2023-12-16T09:22:27.316Z,3.60
2023-12-16T09:23:27.475Z,3.30
2023-12-16T09:24:27.656Z,3.50
2023-12-16T09:25:27.883Z,3.50
2023-12-16T09:26:28.040Z,3.50
2023-12-16T09:27:28.226Z,3.30
2023-12-16T09:28:28.485Z,3.40
2023-12-16T09:29:28.907Z,3.00
2023-12-16T09:30:28.792Z,3.40
2023-12-16T09:31:29.005Z,3.10
2023-12-16T09:32:29.301Z,3.30
2023-12-16T09:33:29.392Z,3.30
2023-12-16T09:34:29.540Z,3.30
2023-12-16T09:35:29.674Z,3.10
2023-12-16T09:36:29.858Z,2.90
2023-12-16T09:37:30.113Z,3.10
2023-12-16T09:38:30.206Z,3.10
2023-12-16T09:39:30.382Z,3.10
2023-12-16T09:40:30.659Z,2.90
2023-12-16T09:41:30.748Z,2.70
2023-12-16T09:42:30.949Z,3.40
2023-12-16T09:43:31.233Z,2.70
2023-12-16T09:44:31.311Z,3.10
2023-12-16T09:45:31.517Z,3.00
2023-12-16T09:46:32.139Z,2.80
2023-12-16T09:47:31.951Z,3.10
2023-12-16T09:48:32.118Z,3.10
2023-12-16T09:49:32.469Z,3.50
2023-12-16T09:50:32.422Z,3.50
2023-12-16T09:51:32.611Z,3.20
2023-12-16T09:52:32.824Z,3.60
2023-12-16T09:53:33.006Z,3.10
2023-12-16T09:54:33.182Z,3.20
2023-12-16T09:55:33.458Z,3.00
2023-12-16T09:56:33.564Z,3.20
2023-12-16T09:57:33.761Z,3.10
2023-12-16T09:58:33.978Z,3.00
2023-12-16T09:59:34.135Z,2.90
2023-12-16T10:00:34.320Z,2.80
2023-12-16T10:01:34.569Z,3.00
2023-12-16T10:02:34.776Z,2.90
2023-12-16T10:03:34.876Z,3.50
2023-12-16T10:04:35.118Z,2.90
2023-12-16T10:05:35.308Z,3.40
2023-12-16T10:06:35.445Z,3.00
2023-12-16T10:07:35.663Z,2.70
2023-12-16T10:08:35.799Z,2.90
2023-12-16T10:09:35.995Z,2.80
2023-12-16T10:10:36.312Z,2.90
2023-12-16T10:11:36.349Z,2.40
2023-12-16T10:12:36.519Z,2.70
2023-12-16T10:13:36.746Z,2.80
2023-12-16T10:14:36.886Z,2.80
2023-12-16T10:15:37.091Z,2.90
2023-12-16T10:16:37.256Z,3.00
2023-12-16T10:17:37.659Z,2.80
2023-12-16T10:18:37.637Z,2.80
2023-12-16T10:19:37.846Z,2.60
2023-12-16T10:20:38.007Z,3.10
2023-12-16T10:21:38.202Z,2.80
2023-12-16T10:22:38.393Z,2.80
2023-12-16T10:23:38.599Z,2.50
2023-12-16T10:24:38.800Z,2.40
2023-12-16T10:25:38.984Z,2.70
2023-12-16T10:26:39.111Z,2.50
2023-12-16T10:27:39.607Z,3.20
2023-12-16T10:28:39.482Z,2.40
2023-12-16T10:29:44.714Z,3.20
2023-12-16T10:30:40.895Z,2.70
2023-12-16T10:31:40.069Z,2.50
2023-12-16T10:32:40.289Z,2.50
2023-12-16T10:33:40.468Z,2.70
2023-12-16T10:34:40.638Z,3.00
2023-12-16T10:35:40.790Z,2.60
2023-12-16T10:36:40.987Z,2.70
2023-12-16T10:37:41.329Z,3.00
2023-12-16T10:38:41.326Z,2.90
2023-12-16T10:39:41.546Z,3.00
2023-12-16T10:40:41.707Z,3.50
2023-12-16T10:41:41.876Z,3.10
2023-12-16T10:42:42.052Z,2.80
2023-12-16T10:43:42.278Z,2.90
2023-12-16T10:44:42.439Z,3.30
2023-12-16T10:45:42.620Z,3.30
2023-12-16T10:46:42.871Z,2.70
2023-12-16T10:47:43.054Z,3.00
2023-12-16T10:48:43.271Z,3.00
2023-12-16T10:49:43.376Z,3.60
2023-12-16T10:50:43.557Z,3.10
2023-12-16T10:51:43.730Z,3.30
2023-12-16T10:52:43.908Z,2.90
2023-12-16T10:53:44.129Z,3.00
2023-12-16T10:54:44.317Z,3.10
2023-12-16T10:55:44.589Z,2.80
2023-12-16T10:56:44.680Z,3.00
2023-12-16T10:57:44.851Z,2.90
2023-12-16T10:58:45.039Z,2.80
2023-12-16T10:59:45.230Z,2.60
2023-12-16T11:00:45.424Z,2.40
2023-12-16T11:01:45.711Z,2.80
2023-12-16T11:02:45.770Z,3.00
2023-12-16T11:03:45.948Z,3.00
2023-12-16T11:04:46.156Z,2.70
2023-12-16T11:05:46.327Z,2.60
2023-12-16T11:06:46.467Z,2.60
2023-12-16T11:07:46.643Z,2.70
2023-12-16T11:08:46.812Z,2.80
2023-12-16T11:09:47.607Z,2.80
2023-12-16T11:10:47.225Z,2.60
2023-12-16T11:11:47.389Z,2.90
2023-12-16T11:12:47.551Z,2.80
2023-12-16T11:13:47.728Z,2.80
2023-12-16T11:14:47.924Z,2.90
2023-12-16T11:15:48.134Z,3.00
2023-12-16T11:16:48.324Z,2.70
2023-12-16T11:17:48.537Z,2.70
2023-12-16T11:18:48.779Z,2.50
2023-12-16T11:20:09.916Z,2.80
2023-12-16T11:20:49.093Z,2.90
2023-12-16T11:21:49.227Z,2.90
2023-12-16T11:22:49.391Z,2.80
2023-12-16T11:23:49.576Z,3.80
2023-12-16T11:24:49.777Z,3.20
2023-12-16T11:25:50.043Z,3.30
2023-12-16T11:26:50.114Z,3.40
2023-12-16T11:27:50.308Z,3.00
2023-12-16T11:28:50.450Z,3.10
2023-12-16T11:29:50.658Z,2.80
2023-12-16T11:30:50.844Z,2.90
2023-12-16T11:31:51.104Z,3.00
2023-12-16T11:32:51.247Z,2.70
2023-12-16T11:33:51.558Z,2.30
2023-12-16T11:34:51.650Z,2.60
2023-12-16T11:35:51.825Z,2.80
2023-12-16T11:36:51.977Z,2.60
2023-12-16T11:37:52.143Z,2.90
2023-12-16T11:38:52.299Z,2.20
2023-12-16T11:39:52.536Z,2.50
2023-12-16T11:40:52.650Z,2.40
2023-12-16T11:41:52.849Z,2.20
2023-12-16T11:42:53.069Z,2.60
2023-12-16T11:43:53.246Z,2.50
2023-12-16T11:44:53.405Z,2.60
2023-12-16T11:45:53.640Z,2.40
2023-12-16T11:46:53.772Z,2.70
2023-12-16T11:47:53.986Z,2.50
2023-12-16T11:48:54.222Z,2.30
2023-12-16T11:49:54.368Z,2.70
2023-12-16T11:50:54.527Z,2.30
2023-12-16T11:51:54.711Z,2.30
2023-12-16T11:52:54.866Z,2.20
2023-12-16T11:53:55.053Z,2.50
2023-12-16T11:54:55.305Z,2.30
2023-12-16T11:55:55.418Z,2.40
2023-12-16T11:56:55.586Z,2.40
2023-12-16T11:57:55.778Z,2.40
2023-12-16T11:58:55.961Z,2.60
2023-12-16T11:59:56.163Z,2.50
2023-12-16T12:00:56.375Z,2.00
2023-12-16T12:01:56.528Z,2.60
2023-12-16T12:02:56.679Z,2.30
2023-12-16T12:03:56.956Z,2.50
2023-12-16T12:04:57.150Z,2.20
2023-12-16T12:05:57.270Z,2.10
2023-12-16T12:06:57.451Z,2.50
2023-12-16T12:07:57.605Z,2.60
2023-12-16T12:08:57.791Z,2.80
2023-12-16T12:09:57.981Z,3.00
2023-12-16T12:10:58.142Z,2.90
2023-12-16T12:11:58.340Z,3.20
2023-12-16T12:12:58.604Z,3.40
2023-12-16T12:13:58.725Z,2.80
2023-12-16T12:14:58.879Z,2.70
2023-12-16T12:15:59.088Z,2.80
2023-12-16T12:16:59.247Z,3.10
2023-12-16T12:17:59.494Z,3.00
2023-12-16T12:18:59.770Z,2.80
2023-12-16T12:19:59.849Z,2.40
2023-12-16T12:21:00.009Z,2.70
2023-12-16T12:22:00.232Z,2.80
2023-12-16T12:23:02.869Z,2.80
2023-12-16T12:24:00.575Z,2.60
2023-12-16T12:25:00.813Z,2.50
2023-12-16T12:26:00.978Z,2.90
2023-12-16T12:27:01.258Z,2.70
2023-12-16T12:28:01.348Z,2.60
2023-12-16T12:29:02.814Z,2.40
2023-12-16T12:30:01.862Z,2.60
2023-12-16T12:31:01.951Z,3.00
2023-12-16T12:32:02.076Z,2.80
2023-12-16T12:33:02.410Z,2.80
2023-12-16T12:34:02.657Z,2.60
2023-12-16T12:35:05.558Z,2.40
2023-12-16T12:36:03.933Z,2.60
2023-12-16T12:37:03.055Z,2.60
2023-12-16T12:38:03.216Z,2.70
2023-12-16T12:39:03.423Z,2.60
2023-12-16T12:40:03.588Z,2.40
2023-12-16T12:41:04.711Z,2.60
2023-12-16T12:42:04.318Z,2.80
2023-12-16T12:43:04.184Z,4.00
2023-12-16T12:44:04.331Z,5.20
2023-12-16T12:45:04.567Z,5.20
2023-12-16T12:46:04.661Z,4.60
2023-12-16T12:47:04.857Z,4.00
2023-12-16T12:48:05.117Z,4.30
2023-12-16T12:49:05.314Z,3.70
2023-12-16T12:50:05.366Z,4.10
2023-12-16T12:51:05.664Z,3.60
2023-12-16T12:52:05.769Z,3.70
2023-12-16T12:53:20.247Z,3.70
2023-12-16T12:54:07.212Z,3.90
2023-12-16T12:55:06.339Z,3.80
2023-12-16T12:56:06.517Z,3.30
2023-12-16T12:57:06.709Z,3.50
2023-12-16T12:58:11.506Z,3.30
2023-12-16T12:59:57.273Z,3.30
2023-12-16T13:01:08.099Z,3.90
2023-12-16T13:02:07.610Z,3.00
2023-12-16T13:03:07.894Z,3.30
2023-12-16T13:04:08.016Z,3.30
2023-12-16T13:05:08.173Z,3.00
2023-12-16T13:06:09.057Z,2.90
2023-12-16T13:07:08.528Z,3.20
2023-12-16T13:08:08.734Z,2.90
2023-12-16T13:09:09.002Z,3.30
2023-12-16T13:10:09.115Z,3.00
2023-12-16T13:11:09.296Z,2.90
2023-12-16T13:12:09.546Z,3.10
2023-12-16T13:13:09.686Z,2.90
2023-12-16T13:14:12.854Z,2.80
2023-12-16T13:15:11.107Z,2.80
2023-12-16T13:16:10.293Z,3.00